createdAt,value
2023-04-16T00:01:29.669Z,100.00
2023-04-16T00:03:58.351Z,100.00
2023-04-16T00:06:27.865Z,100.00
2023-04-16T00:08:56.180Z,100.00
2023-04-16T00:11:24.824Z,100.00
2023-04-16T00:13:54.235Z,100.00
2023-04-16T00:16:23.307Z,100.00
2023-04-16T00:18:52.063Z,100.00
2023-04-16T00:21:20.827Z,100.00
2023-04-16T00:23:49.399Z,100.00
2023-04-16T00:26:17.857Z,100.00
2023-04-16T00:28:46.681Z,100.00
2023-04-16T00:31:15.234Z,100.00
2023-04-16T00:33:44.742Z,100.00
2023-04-16T00:36:14.223Z,100.00
2023-04-16T00:38:43.133Z,100.00
2023-04-16T00:41:11.613Z,100.00
2023-04-16T00:43:40.129Z,100.00
2023-04-16T00:46:08.732Z,100.00
2023-04-16T00:48:38.308Z,100.00
2023-04-16T00:51:07.380Z,100.00
2023-04-16T00:53:36.855Z,100.00
2023-04-16T00:56:07.641Z,100.00
2023-04-16T00:58:37.331Z,100.00
2023-04-16T01:01:05.946Z,100.00
2023-04-16T01:03:39.988Z,100.00
2023-04-16T01:06:08.511Z,100.00
2023-04-16T01:08:36.989Z,100.00
2023-04-16T01:11:05.884Z,100.00
2023-04-16T01:13:39.291Z,100.00
2023-04-16T01:16:09.480Z,100.00
2023-04-16T01:18:38.597Z,100.00
2023-04-16T01:21:07.078Z,100.00
2023-04-16T01:23:36.606Z,100.00
2023-04-16T01:26:05.183Z,100.00
2023-04-16T01:28:34.058Z,100.00
2023-04-16T01:31:02.551Z,100.00
2023-04-16T01:33:43.937Z,100.00
2023-04-16T01:36:13.942Z,100.00
2023-04-16T01:38:42.752Z,100.00
2023-04-16T01:41:11.218Z,100.00
2023-04-16T01:43:40.275Z,100.00
2023-04-16T01:46:18.557Z,100.00
2023-04-16T01:48:47.445Z,100.00
2023-04-16T01:51:15.833Z,100.00
2023-04-16T01:53:44.281Z,100.00
2023-04-16T01:56:12.957Z,100.00
2023-04-16T01:58:42.966Z,100.00
2023-04-16T02:01:11.815Z,100.00
2023-04-16T02:03:41.320Z,100.00
2023-04-16T02:06:10.053Z,100.00
2023-04-16T02:08:38.736Z,100.00
2023-04-16T02:11:07.714Z,100.00
2023-04-16T02:13:37.332Z,100.00
2023-04-16T02:16:06.892Z,100.00
2023-04-16T02:18:56.541Z,100.00
2023-04-16T02:21:26.120Z,100.00
2023-04-16T02:23:54.705Z,100.00
2023-04-16T02:26:29.436Z,100.00
2023-04-16T02:29:00.379Z,100.00
2023-04-16T02:31:34.259Z,100.00
2023-04-16T02:34:02.963Z,100.00
2023-04-16T02:36:32.273Z,100.00
2023-04-16T02:39:00.752Z,100.00
2023-04-16T02:41:29.226Z,100.00
2023-04-16T02:43:57.809Z,100.00
2023-04-16T02:46:26.919Z,100.00
2023-04-16T02:48:55.639Z,100.00
2023-04-16T02:51:24.201Z,100.00
2023-04-16T02:53:52.766Z,100.00
2023-04-16T02:56:21.449Z,100.00
2023-04-16T02:58:50.853Z,100.00
2023-04-16T03:01:19.486Z,100.00
2023-04-16T03:03:48.057Z,100.00
2023-04-16T03:06:17.115Z,100.00
2023-04-16T03:08:46.322Z,100.00
2023-04-16T03:11:15.003Z,100.00
2023-04-16T03:13:44.143Z,100.00
2023-04-16T03:16:12.941Z,100.00
2023-04-16T03:18:41.575Z,100.00
2023-04-16T03:21:09.942Z,100.00
2023-04-16T03:23:39.630Z,100.00
2023-04-16T03:26:08.143Z,100.00
2023-04-16T03:28:37.581Z,100.00
2023-04-16T03:31:06.315Z,100.00
2023-04-16T03:33:35.435Z,100.00
2023-04-16T03:36:05.029Z,100.00
2023-04-16T03:38:35.915Z,100.00
2023-04-16T03:41:07.316Z,100.00
2023-04-16T03:43:36.312Z,100.00
2023-04-16T03:46:04.955Z,100.00
2023-04-16T03:48:33.791Z,100.00
2023-04-16T03:51:02.702Z,100.00
2023-04-16T03:53:31.572Z,100.00
2023-04-16T03:56:00.428Z,100.00
2023-04-16T03:58:29.496Z,100.00
2023-04-16T04:00:58.653Z,100.00
2023-04-16T04:03:28.524Z,100.00
2023-04-16T04:05:57.488Z,100.00
2023-04-16T04:08:29.132Z,100.00
2023-04-16T04:10:57.920Z,100.00
2023-04-16T04:13:27.522Z,100.00
2023-04-16T04:15:56.108Z,100.00
2023-04-16T04:18:24.887Z,100.00
2023-04-16T04:20:53.251Z,100.00
2023-04-16T04:23:25.010Z,100.00
2023-04-16T04:25:53.924Z,100.00
2023-04-16T04:28:22.563Z,100.00
2023-04-16T04:30:51.173Z,100.00
2023-04-16T04:33:19.973Z,100.00
2023-04-16T04:35:49.469Z,100.00
2023-04-16T04:38:20.404Z,100.00
2023-04-16T04:40:49.446Z,100.00
2023-04-16T04:43:19.322Z,100.00
2023-04-16T04:45:49.550Z,100.00
2023-04-16T04:48:18.659Z,100.00
2023-04-16T04:50:47.522Z,100.00
2023-04-16T04:53:17.436Z,100.00
2023-04-16T04:55:45.920Z,100.00
2023-04-16T04:58:14.808Z,100.00
2023-04-16T05:00:43.737Z,100.00
2023-04-16T05:03:13.009Z,100.00
2023-04-16T05:05:41.971Z,100.00
2023-04-16T05:08:10.787Z,100.00
2023-04-16T05:10:39.293Z,100.00
2023-04-16T05:13:08.183Z,100.00
2023-04-16T05:15:36.759Z,100.00
2023-04-16T05:18:05.729Z,100.00
2023-04-16T05:20:34.372Z,100.00
2023-04-16T05:23:02.825Z,100.00
2023-04-16T05:25:31.590Z,100.00
2023-04-16T05:28:00.276Z,100.00
2023-04-16T05:30:28.928Z,100.00
2023-04-16T05:32:57.826Z,100.00
2023-04-16T05:35:26.978Z,100.00
2023-04-16T05:37:55.731Z,100.00
2023-04-16T05:40:24.324Z,100.00
2023-04-16T05:42:52.796Z,100.00
2023-04-16T05:45:21.073Z,100.00
2023-04-16T05:47:49.564Z,100.00
2023-04-16T05:50:18.033Z,100.00
2023-04-16T05:52:46.774Z,100.00
2023-04-16T05:55:15.554Z,100.00
2023-04-16T05:57:43.918Z,100.00
2023-04-16T06:00:13.302Z,100.00
2023-04-16T06:02:42.032Z,100.00
2023-04-16T06:05:10.859Z,100.00
2023-04-16T06:07:39.624Z,100.00
2023-04-16T06:10:08.953Z,100.00
2023-04-16T06:12:37.674Z,99.72
2023-04-16T06:15:06.708Z,99.58
2023-04-16T06:17:37.247Z,100.00
2023-04-16T06:20:06.817Z,100.00
2023-04-16T06:22:35.144Z,99.95
2023-04-16T06:25:03.728Z,95.37
2023-04-16T06:27:32.367Z,94.49
2023-04-16T06:30:01.109Z,97.10
2023-04-16T06:32:30.437Z,99.91
2023-04-16T06:34:59.490Z,100.00
2023-04-16T06:37:28.090Z,100.00
2023-04-16T06:39:56.880Z,100.00
2023-04-16T06:42:25.456Z,97.97
2023-04-16T06:44:54.166Z,91.84
2023-04-16T06:47:22.728Z,88.60
2023-04-16T06:49:51.108Z,92.12
2023-04-16T06:52:19.583Z,90.04
2023-04-16T06:54:48.579Z,94.55
2023-04-16T06:57:17.157Z,92.28
2023-04-16T06:59:46.147Z,89.25
2023-04-16T07:02:14.657Z,74.64
2023-04-16T07:04:43.111Z,67.89
2023-04-16T07:07:12.364Z,68.69
2023-04-16T07:09:42.023Z,64.92
2023-04-16T07:12:12.350Z,63.07
2023-04-16T07:14:41.670Z,61.79
2023-04-16T07:17:10.234Z,60.11
2023-04-16T07:19:39.049Z,60.80
2023-04-16T07:22:07.506Z,60.61
2023-04-16T07:24:36.199Z,62.12
2023-04-16T07:27:04.819Z,62.49
2023-04-16T07:29:33.353Z,59.88
2023-04-16T07:32:02.276Z,56.87
2023-04-16T07:34:31.236Z,56.13
2023-04-16T07:36:59.919Z,54.95
2023-04-16T07:39:28.654Z,55.26
2023-04-16T07:41:57.325Z,59.14
2023-04-16T07:44:26.231Z,66.54
2023-04-16T07:46:54.707Z,70.00
2023-04-16T07:49:23.280Z,71.39
2023-04-16T07:51:51.736Z,74.99
2023-04-16T07:54:21.149Z,79.12
2023-04-16T07:56:49.877Z,84.15
2023-04-16T07:59:23.363Z,83.56
2023-04-16T08:01:53.409Z,73.51
2023-04-16T08:04:25.713Z,69.47
2023-04-16T08:06:55.020Z,72.14
2023-04-16T08:09:26.665Z,75.56
2023-04-16T08:11:55.042Z,70.59
2023-04-16T08:14:23.534Z,68.09
2023-04-16T08:16:52.626Z,68.42
2023-04-16T08:19:21.097Z,66.09
2023-04-16T08:21:49.751Z,64.14
2023-04-16T08:24:18.268Z,64.85
2023-04-16T08:26:46.766Z,66.79
2023-04-16T08:29:15.456Z,63.90
2023-04-16T08:31:44.330Z,65.05
2023-04-16T08:34:13.230Z,63.60
2023-04-16T08:36:41.915Z,61.18
2023-04-16T08:39:10.705Z,61.01
2023-04-16T08:41:42.412Z,61.00
2023-04-16T08:44:17.499Z,60.55
2023-04-16T08:46:45.935Z,62.61
2023-04-16T08:49:18.107Z,64.18
2023-04-16T08:51:51.401Z,69.45
2023-04-16T08:54:56.671Z,64.07
2023-04-16T08:57:29.250Z,61.63
2023-04-16T08:59:57.845Z,61.72
2023-04-16T09:02:26.442Z,59.22
2023-04-16T09:04:55.732Z,57.09
2023-04-16T09:07:24.296Z,59.91
2023-04-16T09:09:53.493Z,57.47
2023-04-16T09:12:24.214Z,57.66
2023-04-16T09:14:53.257Z,59.64
2023-04-16T09:17:21.714Z,62.57
2023-04-16T09:19:50.182Z,59.74
2023-04-16T09:22:19.036Z,58.83
2023-04-16T09:24:47.760Z,59.06
2023-04-16T09:27:16.854Z,60.48
2023-04-16T09:29:46.482Z,55.41
2023-04-16T09:32:14.919Z,57.58
2023-04-16T09:34:56.759Z,56.81
2023-04-16T09:37:31.707Z,56.02
2023-04-16T09:40:04.170Z,59.05
2023-04-16T09:42:34.312Z,57.38
2023-04-16T09:45:05.771Z,55.31
2023-04-16T09:47:44.523Z,51.37
2023-04-16T09:50:18.617Z,49.90
2023-04-16T09:52:53.528Z,51.60
2023-04-16T09:55:23.842Z,51.64
2023-04-16T09:58:00.434Z,50.93
2023-04-16T10:00:30.525Z,49.77
2023-04-16T10:03:08.401Z,47.85
2023-04-16T10:05:37.443Z,47.67
2023-04-16T10:08:13.682Z,49.54
2023-04-16T10:10:42.054Z,52.68
2023-04-16T10:13:10.901Z,52.46
2023-04-16T10:15:39.307Z,50.83
2023-04-16T10:18:07.819Z,45.77
2023-04-16T10:20:37.187Z,45.40
2023-04-16T10:23:05.606Z,46.39
2023-04-16T10:25:34.053Z,46.85
2023-04-16T10:28:02.735Z,48.05
2023-04-16T10:30:31.238Z,49.45
2023-04-16T10:33:00.638Z,47.41
2023-04-16T10:35:30.357Z,48.68
2023-04-16T10:38:18.584Z,48.57
2023-04-16T10:40:47.000Z,49.43
2023-04-16T10:43:20.245Z,46.82
2023-04-16T10:45:49.062Z,46.67
2023-04-16T10:48:20.588Z,46.53
2023-04-16T10:50:57.158Z,45.59
2023-04-16T10:53:27.278Z,44.77
2023-04-16T10:56:04.912Z,44.72
2023-04-16T10:58:36.026Z,45.21
2023-04-16T11:01:12.372Z,46.11
2023-04-16T11:03:45.091Z,46.73
2023-04-16T11:06:16.740Z,47.01
2023-04-16T11:08:54.712Z,44.62
2023-04-16T11:11:24.154Z,43.25
2023-04-16T11:13:55.822Z,43.47
2023-04-16T11:16:24.887Z,43.69
2023-04-16T11:18:55.003Z,42.47
2023-04-16T11:21:24.921Z,42.87
2023-04-16T11:23:53.533Z,43.50
2023-04-16T11:26:28.960Z,42.78
2023-04-16T11:28:57.739Z,42.27
2023-04-16T11:31:27.497Z,42.93
2023-04-16T11:33:56.942Z,41.87
2023-04-16T11:38:28.854Z,42.03
2023-04-16T11:39:13.931Z,42.52
2023-04-16T11:41:46.319Z,42.89
2023-04-16T11:44:21.785Z,43.49
2023-04-16T11:46:51.124Z,42.63
2023-04-16T11:49:31.767Z,41.03
2023-04-16T11:52:00.217Z,40.80
2023-04-16T11:54:34.964Z,40.95
2023-04-16T11:57:04.888Z,41.18
2023-04-16T11:59:33.663Z,40.52
2023-04-16T12:02:02.289Z,41.37
2023-04-16T12:04:35.089Z,42.31
2023-04-16T12:07:14.055Z,42.99
2023-04-16T12:09:43.770Z,43.32
2023-04-16T12:12:26.479Z,42.17
2023-04-16T12:14:57.093Z,42.84
2023-04-16T12:19:30.562Z,42.64
2023-04-16T12:22:02.158Z,44.11
2023-04-16T12:24:32.322Z,44.83
2023-04-16T12:27:03.427Z,42.89
2023-04-16T12:29:32.558Z,42.40
2023-04-16T12:32:02.091Z,42.96
2023-04-16T12:34:48.153Z,41.66
2023-04-16T12:37:18.266Z,42.17
2023-04-16T12:39:47.967Z,41.95
2023-04-16T12:42:16.920Z,41.48
2023-04-16T12:44:45.589Z,42.46
2023-04-16T12:47:13.967Z,42.09
2023-04-16T12:49:42.626Z,41.25
2023-04-16T12:52:11.226Z,41.13
2023-04-16T12:54:39.593Z,42.31
2023-04-16T12:57:08.068Z,42.44
2023-04-16T12:59:36.648Z,42.39
2023-04-16T13:02:05.786Z,41.04
2023-04-16T13:04:34.437Z,40.64
2023-04-16T13:07:02.994Z,40.94
2023-04-16T13:09:31.564Z,40.77
2023-04-16T13:11:59.938Z,39.62
2023-04-16T13:14:28.347Z,39.44
2023-04-16T13:16:56.826Z,40.37
2023-04-16T13:19:25.304Z,40.64
2023-04-16T13:21:53.862Z,41.40
2023-04-16T13:24:23.330Z,41.53
2023-04-16T13:26:56.529Z,42.23
2023-04-16T13:29:24.860Z,42.69
2023-04-16T13:31:53.333Z,42.82
2023-04-16T13:34:22.365Z,43.19
2023-04-16T13:36:50.942Z,42.60
2023-04-16T13:39:19.816Z,42.71
2023-04-16T13:41:49.413Z,41.64
2023-04-16T13:44:17.975Z,41.82
2023-04-16T13:46:48.043Z,42.15
2023-04-16T13:49:16.494Z,43.21
2023-04-16T13:51:45.004Z,44.75
2023-04-16T13:54:13.516Z,44.67
2023-04-16T13:56:42.141Z,44.30
2023-04-16T13:59:10.992Z,43.37
2023-04-16T14:01:39.864Z,43.28
2023-04-16T14:04:08.689Z,41.94
2023-04-16T14:06:38.047Z,40.83
2023-04-16T14:09:07.033Z,41.24
2023-04-16T14:11:35.599Z,41.63
2023-04-16T14:14:04.385Z,42.92
2023-04-16T14:16:33.304Z,42.75
2023-04-16T14:19:01.932Z,42.94
2023-04-16T14:21:31.394Z,42.53
2023-04-16T14:23:59.837Z,42.13
2023-04-16T14:26:28.384Z,42.22
2023-04-16T14:28:56.905Z,41.98
2023-04-16T14:31:25.961Z,42.19
2023-04-16T14:33:54.230Z,42.30
2023-04-16T14:36:22.878Z,42.83
2023-04-16T14:38:51.647Z,43.26
2023-04-16T14:41:20.539Z,42.10
2023-04-16T14:43:49.327Z,42.67
2023-04-16T14:46:18.295Z,43.50
2023-04-16T14:48:47.412Z,43.27
2023-04-16T14:51:15.997Z,43.68
2023-04-16T14:53:44.560Z,44.36
2023-04-16T14:56:13.780Z,45.70
2023-04-16T14:58:43.589Z,46.27
2023-04-16T15:01:13.736Z,46.62
2023-04-16T15:03:43.290Z,46.74
2023-04-16T15:06:12.003Z,46.12
2023-04-16T15:08:40.608Z,46.39
2023-04-16T15:11:09.108Z,46.44
2023-04-16T15:13:38.581Z,46.19
2023-04-16T15:16:07.302Z,47.17
2023-04-16T15:18:36.256Z,46.95
2023-04-16T15:21:04.591Z,47.09
2023-04-16T15:23:33.218Z,47.31
2023-04-16T15:26:02.005Z,48.40
2023-04-16T15:28:30.408Z,49.14
2023-04-16T15:30:58.941Z,49.89
2023-04-16T15:33:27.997Z,50.70
2023-04-16T15:35:56.464Z,50.74
2023-04-16T15:38:24.936Z,49.46
2023-04-16T15:40:53.606Z,48.47
2023-04-16T15:43:22.298Z,48.57
2023-04-16T15:45:51.429Z,48.33
2023-04-16T15:48:20.077Z,47.24
2023-04-16T15:50:48.562Z,46.82
2023-04-16T15:53:17.256Z,47.56
2023-04-16T15:55:45.622Z,48.37
2023-04-16T15:58:15.358Z,49.30
2023-04-16T16:00:46.740Z,49.74
2023-04-16T16:03:17.261Z,50.74
2023-04-16T16:05:48.815Z,51.50
2023-04-16T16:08:18.679Z,50.76
2023-04-16T16:10:47.595Z,51.01
2023-04-16T16:13:18.507Z,51.52
2023-04-16T16:15:47.036Z,52.10
2023-04-16T16:18:15.781Z,51.56
2023-04-16T16:20:44.204Z,51.35
2023-04-16T16:23:13.276Z,51.42
2023-04-16T16:25:42.765Z,51.06
2023-04-16T16:28:11.341Z,50.76
2023-04-16T16:30:39.740Z,49.97
2023-04-16T16:33:09.660Z,50.44
2023-04-16T16:35:38.319Z,50.57
2023-04-16T16:38:06.902Z,50.50
2023-04-16T16:40:35.426Z,50.40
2023-04-16T16:43:04.164Z,49.80
2023-04-16T16:45:32.888Z,49.76
2023-04-16T16:48:01.734Z,50.34
2023-04-16T16:50:33.231Z,50.96
2023-04-16T16:53:02.073Z,51.70
2023-04-16T16:55:30.470Z,52.12
2023-04-16T16:57:59.161Z,52.41
2023-04-16T17:00:27.744Z,53.36
2023-04-16T17:02:56.672Z,53.83
2023-04-16T17:05:25.401Z,54.33
2023-04-16T17:07:54.217Z,54.42
2023-04-16T17:10:22.649Z,55.16
2023-04-16T17:12:51.369Z,55.60
2023-04-16T17:15:21.805Z,56.55
2023-04-16T17:17:51.121Z,57.20
2023-04-16T17:20:20.074Z,57.92
2023-04-16T17:22:48.483Z,59.67
2023-04-16T17:25:17.318Z,61.17
2023-04-16T17:27:46.050Z,62.92
2023-04-16T17:30:14.506Z,65.13
2023-04-16T17:32:43.020Z,66.12
2023-04-16T17:35:11.432Z,66.66
2023-04-16T17:37:39.982Z,68.05
2023-04-16T17:40:10.158Z,69.56
2023-04-16T17:42:38.884Z,70.65
2023-04-16T17:45:07.850Z,71.83
2023-04-16T17:47:37.423Z,72.53
2023-04-16T17:50:07.342Z,72.85
2023-04-16T17:52:38.030Z,74.61
2023-04-16T17:55:06.818Z,75.70
2023-04-16T17:57:35.707Z,76.98
2023-04-16T18:00:11.369Z,77.54
2023-04-16T18:02:42.843Z,78.83
2023-04-16T18:05:11.748Z,78.96
2023-04-16T18:07:40.553Z,80.25
2023-04-16T18:10:10.002Z,81.05
2023-04-16T18:12:38.723Z,82.23
2023-04-16T18:15:07.994Z,83.47
2023-04-16T18:17:36.540Z,83.53
2023-04-16T18:20:07.268Z,84.84
2023-04-16T18:22:36.004Z,85.98
2023-04-16T18:25:05.420Z,86.38
2023-04-16T18:27:34.698Z,86.77
2023-04-16T18:30:04.395Z,87.78
2023-04-16T18:32:33.779Z,88.89
2023-04-16T18:35:02.388Z,89.86
2023-04-16T18:37:31.570Z,90.59
2023-04-16T18:39:59.925Z,91.27
2023-04-16T18:42:28.651Z,91.65
2023-04-16T18:44:57.250Z,92.21
2023-04-16T18:47:25.850Z,93.08
2023-04-16T18:49:54.390Z,94.98
2023-04-16T18:52:22.968Z,96.32
2023-04-16T18:54:51.678Z,97.69
2023-04-16T18:57:20.047Z,99.04
2023-04-16T18:59:49.041Z,99.98
2023-04-16T19:02:17.572Z,100.00
2023-04-16T19:04:46.602Z,100.00
2023-04-16T19:07:15.087Z,100.00
2023-04-16T19:09:44.492Z,100.00
2023-04-16T19:12:12.908Z,100.00
2023-04-16T19:14:41.559Z,100.00
2023-04-16T19:17:10.712Z,100.00
2023-04-16T19:19:39.438Z,100.00
2023-04-16T19:22:07.952Z,100.00
2023-04-16T19:24:37.154Z,100.00
2023-04-16T19:27:05.834Z,100.00
2023-04-16T19:29:35.027Z,100.00
2023-04-16T19:32:03.827Z,100.00
2023-04-16T19:34:32.620Z,100.00
2023-04-16T19:37:01.161Z,100.00
2023-04-16T19:39:29.775Z,100.00
2023-04-16T19:41:58.644Z,100.00
2023-04-16T19:44:28.000Z,100.00
2023-04-16T19:46:56.631Z,100.00
2023-04-16T19:49:34.618Z,100.00
2023-04-16T19:52:03.596Z,100.00
2023-04-16T19:54:33.943Z,100.00
2023-04-16T19:57:02.329Z,100.00
2023-04-16T19:59:32.462Z,100.00
2023-04-16T20:02:01.528Z,100.00
2023-04-16T20:04:30.167Z,100.00
2023-04-16T20:06:58.841Z,100.00
2023-04-16T20:09:27.301Z,100.00
2023-04-16T20:11:55.802Z,100.00
2023-04-16T20:14:24.176Z,100.00
2023-04-16T20:16:52.984Z,100.00
2023-04-16T20:19:22.242Z,100.00
2023-04-16T20:21:50.721Z,100.00
2023-04-16T20:24:19.203Z,100.00
2023-04-16T20:26:47.577Z,100.00
2023-04-16T20:29:16.018Z,100.00
2023-04-16T20:31:46.167Z,100.00
2023-04-16T20:34:14.969Z,100.00
2023-04-16T20:36:43.668Z,100.00
2023-04-16T20:39:12.750Z,100.00
2023-04-16T20:41:44.287Z,100.00
2023-04-16T20:44:18.388Z,100.00
2023-04-16T20:46:50.173Z,100.00
2023-04-16T20:49:18.857Z,100.00
2023-04-16T20:51:47.442Z,100.00
2023-04-16T20:54:16.029Z,100.00
2023-04-16T20:56:45.036Z,100.00
2023-04-16T20:59:13.641Z,100.00
2023-04-16T21:02:01.259Z,100.00
2023-04-16T21:04:30.313Z,100.00
2023-04-16T21:06:59.004Z,100.00
2023-04-16T21:09:27.404Z,100.00
2023-04-16T21:11:56.535Z,100.00
2023-04-16T21:14:25.108Z,100.00
2023-04-16T21:16:53.577Z,100.00
2023-04-16T21:19:22.668Z,100.00
2023-04-16T21:21:50.945Z,100.00
2023-04-16T21:24:19.337Z,100.00
2023-04-16T21:26:47.708Z,100.00
2023-04-16T21:29:16.280Z,100.00
2023-04-16T21:31:44.834Z,100.00
2023-04-16T21:34:13.509Z,100.00
2023-04-16T21:36:41.978Z,100.00
2023-04-16T21:39:11.643Z,100.00
2023-04-16T21:41:40.662Z,100.00
2023-04-16T21:44:09.089Z,100.00
2023-04-16T21:46:37.649Z,100.00
2023-04-16T21:49:06.410Z,100.00
2023-04-16T21:51:35.535Z,100.00
2023-04-16T21:54:04.374Z,100.00
2023-04-16T21:56:32.961Z,100.00
2023-04-16T21:59:01.539Z,100.00
2023-04-16T22:01:30.426Z,100.00
2023-04-16T22:03:58.956Z,100.00
2023-04-16T22:06:27.494Z,100.00
2023-04-16T22:08:59.249Z,100.00
2023-04-16T22:11:28.038Z,100.00
2023-04-16T22:13:57.981Z,100.00
2023-04-16T22:16:26.976Z,100.00
2023-04-16T22:18:56.810Z,100.00
2023-04-16T22:21:26.294Z,100.00
2023-04-16T22:23:54.666Z,100.00
2023-04-16T22:26:23.128Z,100.00
2023-04-16T22:28:51.812Z,100.00
2023-04-16T22:31:20.155Z,100.00
2023-04-16T22:33:49.139Z,100.00
2023-04-16T22:36:17.864Z,100.00
2023-04-16T22:38:46.905Z,100.00
2023-04-16T22:41:15.656Z,100.00
2023-04-16T22:43:43.926Z,100.00
2023-04-16T22:46:12.504Z,100.00
2023-04-16T22:48:41.084Z,100.00
2023-04-16T22:51:09.571Z,100.00
2023-04-16T22:53:38.318Z,100.00
2023-04-16T22:56:07.214Z,100.00
2023-04-16T22:58:36.141Z,100.00
2023-04-16T23:01:04.542Z,100.00
2023-04-16T23:03:34.002Z,100.00
2023-04-16T23:06:04.242Z,100.00
2023-04-16T23:08:32.992Z,100.00
2023-04-16T23:11:01.870Z,100.00
2023-04-16T23:13:30.589Z,100.00
2023-04-16T23:15:59.133Z,100.00
2023-04-16T23:18:27.696Z,100.00
2023-04-16T23:20:56.378Z,100.00
2023-04-16T23:23:24.951Z,100.00
2023-04-16T23:25:56.187Z,100.00
2023-04-16T23:28:25.195Z,100.00
2023-04-16T23:30:53.696Z,100.00
2023-04-16T23:33:23.475Z,100.00
2023-04-16T23:35:51.961Z,100.00
2023-04-16T23:38:20.454Z,100.00
2023-04-16T23:40:48.919Z,100.00
2023-04-16T23:43:18.228Z,100.00
2023-04-16T23:45:46.837Z,100.00
2023-04-16T23:48:15.844Z,100.00
2023-04-16T23:50:44.200Z,100.00
2023-04-16T23:53:12.894Z,100.00
2023-04-16T23:55:41.343Z,100.00
2023-04-16T23:58:10.232Z,100.00
